Time;durP1;ratioP1;P1;durP2;ratioP2;P2;SDS_P1;SDS_P2;PMS_P1;PMS_P2;Temp;Humidity;BMP_temperature;BMP_pressure;BME280_temperature;BME280_humidity;BME280_pressure;Samples;Min_cycle;Max_cycle;Signal;HPM_P1;HPM_P2
2022/04/18 00:01:57;;;;;;;0.10;0.10;;;;;;;10.76;51.16;101714.59;5038703;28;20032;-67
2022/04/18 00:04:22;;;;;;;0.17;0.17;;;;;;;10.63;51.66;101704.88;5052790;28;20079;-68
2022/04/18 00:06:48;;;;;;;0.10;0.10;;;;;;;10.70;51.48;101704.34;5091052;28;20482;-67
2022/04/18 00:09:13;;;;;;;0.10;0.10;;;;;;;10.75;51.74;101706.84;5093088;28;20074;-67
2022/04/18 00:11:39;;;;;;;0.10;0.10;;;;;;;10.73;51.87;101692.91;5075356;28;20115;-67
2022/04/18 00:14:05;;;;;;;0.20;0.20;;;;;;;10.68;52.31;101707.34;5091298;28;20031;-67
2022/04/18 00:16:30;;;;;;;0.10;0.10;;;;;;;10.66;52.83;101700.75;5055204;28;20071;-67
2022/04/18 00:18:56;;;;;;;0.10;0.10;;;;;;;10.65;53.54;101705.34;5072616;28;20033;-67
2022/04/18 00:21:21;;;;;;;0.10;0.10;;;;;;;10.57;53.84;101705.38;5073041;28;20099;-67
2022/04/18 00:23:47;;;;;;;0.10;0.10;;;;;;;10.53;54.53;101699.09;5087834;28;20044;-67
2022/04/18 00:26:13;;;;;;;0.10;0.10;;;;;;;10.45;54.03;101699.97;5093109;28;20553;-67
2022/04/18 00:28:39;;;;;;;0.10;0.10;;;;;;;10.40;54.61;101694.75;5065458;28;20028;-67
2022/04/18 00:31:04;;;;;;;0.20;0.20;;;;;;;10.35;54.35;101703.81;5075117;28;20400;-67
2022/04/18 00:33:30;;;;;;;0.10;0.10;;;;;;;10.31;55.08;101691.34;5058052;28;20173;-67
2022/04/18 00:35:56;;;;;;;0.47;0.30;;;;;;;10.30;55.11;101684.38;5070948;28;20104;-67
2022/04/18 00:38:23;;;;;;;0.10;0.10;;;;;;;10.24;55.66;101686.47;5071659;28;20033;-67
2022/04/18 00:40:49;;;;;;;0.10;0.10;;;;;;;10.20;55.51;101685.53;5072225;28;20043;-67
2022/04/18 00:43:15;;;;;;;0.85;0.32;;;;;;;10.12;55.44;101693.66;5057969;28;20462;-67
2022/04/18 00:45:40;;;;;;;0.10;0.10;;;;;;;10.11;55.71;101692.88;5092437;28;20119;-67
2022/04/18 00:48:06;;;;;;;0.10;0.10;;;;;;;10.06;56.09;101686.88;5073770;28;20028;-67
2022/04/18 00:50:33;;;;;;;0.13;0.13;;;;;;;10.02;56.65;101681.34;5092515;28;20519;-67
2022/04/18 00:53:00;;;;;;;0.20;0.20;;;;;;;10.01;57.16;101687.84;5088133;28;20067;-67
2022/04/18 00:55:27;;;;;;;0.10;0.10;;;;;;;9.98;57.34;101673.16;5058540;28;20059;-67
2022/04/18 00:57:54;;;;;;;0.25;0.25;;;;;;;9.88;58.02;101672.72;5073333;28;20123;-67
2022/04/18 01:00:20;;;;;;;0.20;0.20;;;;;;;9.88;58.35;101676.19;5086820;28;20048;-67
2022/04/18 01:02:46;;;;;;;0.10;0.10;;;;;;;9.95;58.28;101670.28;5087829;28;20047;-67
2022/04/18 01:05:12;;;;;;;0.10;0.10;;;;;;;9.96;57.77;101663.81;5073646;28;20032;-67
2022/04/18 01:07:38;;;;;;;0.10;0.10;;;;;;;9.87;58.55;101666.53;5091150;28;20030;-67
2022/04/18 01:10:06;;;;;;;0.10;0.10;;;;;;;9.90;59.08;101676.66;5080817;28;20127;-67
2022/04/18 01:12:31;;;;;;;0.10;0.10;;;;;;;9.86;59.14;101664.97;5054092;28;20051;-67
2022/04/18 01:15:08;;;;;;;0.10;0.10;;;;;;;9.86;59.33;101661.47;5069960;28;20028;-67
2022/04/18 01:18:00;;;;;;;0.10;0.10;;;;;;;9.79;59.71;101650.47;5069710;28;20028;-67
2022/04/18 01:20:42;;;;;;;0.10;0.10;;;;;;;9.76;60.09;101653.78;5053674;28;20035;-67
2022/04/18 01:23:32;;;;;;;0.10;0.10;;;;;;;9.74;59.69;101653.31;5071409;28;20051;-67
2022/04/18 01:28:59;;;;;;;0.30;0.30;;;;;;;9.63;60.84;101650.22;5062483;28;20115;-67
2022/04/18 01:31:30;;;;;;;0.10;0.10;;;;;;;9.56;61.61;101649.16;5084512;28;20030;-67
2022/04/18 01:33:57;;;;;;;0.10;0.10;;;;;;;9.57;61.53;101648.00;5072929;28;20043;-67
2022/04/18 01:36:27;;;;;;;0.25;0.25;;;;;;;9.59;61.06;101643.91;5073267;28;20028;-67
2022/04/18 01:38:54;;;;;;;0.10;0.10;;;;;;;9.54;60.50;101646.00;5068802;28;20032;-67
2022/04/18 01:41:20;;;;;;;0.10;0.10;;;;;;;9.52;60.72;101637.44;5053580;28;20024;-67
2022/04/18 01:43:46;;;;;;;0.10;0.10;;;;;;;9.44;61.10;101651.72;5071105;28;20040;-67
2022/04/18 01:46:15;;;;;;;0.10;0.10;;;;;;;9.45;61.48;101647.91;5053042;28;20070;-67
2022/04/18 01:48:41;;;;;;;0.20;0.20;;;;;;;9.49;60.97;101638.88;5052995;28;20039;-67
2022/04/18 01:51:07;;;;;;;0.17;0.17;;;;;;;9.43;61.29;101644.75;5053263;28;20020;-67
2022/04/18 01:53:33;;;;;;;0.10;0.10;;;;;;;9.34;61.77;101644.00;5036636;28;20119;-67
2022/04/18 01:55:59;;;;;;;0.30;0.30;;;;;;;9.37;61.98;101640.69;5047319;28;20033;-67
2022/04/18 01:58:29;;;;;;;0.10;0.10;;;;;;;9.36;61.41;101639.09;5048926;28;20020;-68
2022/04/18 02:00:56;;;;;;;0.08;0.08;;;;;;;9.27;62.15;101633.72;5054328;28;20508;-67
2022/04/18 02:03:22;;;;;;;0.25;0.25;;;;;;;9.26;62.60;101634.06;5066804;28;20048;-67
2022/04/18 02:05:50;;;;;;;0.10;0.10;;;;;;;9.22;62.18;101623.16;5070671;28;20031;-67
2022/04/18 02:08:16;;;;;;;0.10;0.10;;;;;;;9.18;62.67;101621.44;5090636;28;20043;-67
2022/04/18 02:10:42;;;;;;;0.13;0.13;;;;;;;9.15;62.63;101619.41;5091094;28;20400;-67
2022/04/18 02:13:10;;;;;;;0.10;0.10;;;;;;;9.13;63.51;101616.25;5068593;28;20021;-67
2022/04/18 02:15:36;;;;;;;0.10;0.10;;;;;;;9.07;63.73;101616.44;5051534;28;20070;-67
2022/04/18 02:18:03;;;;;;;0.10;0.10;;;;;;;9.01;64.00;101604.28;5052605;28;20056;-67
2022/04/18 02:20:29;;;;;;;0.10;0.10;;;;;;;8.99;64.86;101606.50;5052342;28;20025;-67
2022/04/18 02:22:56;;;;;;;0.10;0.10;;;;;;;8.98;65.00;101599.53;5070610;28;20036;-67
2022/04/18 02:25:23;;;;;;;0.20;0.20;;;;;;;9.04;64.66;101602.81;5068971;28;20036;-68
2022/04/18 02:27:51;;;;;;;0.10;0.10;;;;;;;8.98;64.64;101602.22;5051925;28;20035;-67
2022/04/18 02:30:17;;;;;;;0.20;0.20;;;;;;;8.93;64.79;101601.59;5052366;28;20106;-67
2022/04/18 02:32:52;;;;;;;0.10;0.10;;;;;;;8.88;64.72;101591.81;5072090;28;20032;-67
2022/04/18 02:35:24;;;;;;;0.25;0.25;;;;;;;8.84;65.48;101588.19;5090359;28;20040;-68
2022/04/18 02:37:54;;;;;;;0.30;0.30;;;;;;;8.79;65.91;101592.94;5071906;28;20484;-67
2022/04/18 02:40:24;;;;;;;0.10;0.10;;;;;;;8.74;66.30;101590.44;5072873;28;20046;-68
2022/04/18 02:42:51;;;;;;;0.10;0.10;;;;;;;8.72;66.12;101598.00;5056300;28;20070;-68
2022/04/18 02:45:18;;;;;;;0.20;0.20;;;;;;;8.61;66.26;101586.81;5072654;28;20067;-67
2022/04/18 02:48:03;;;;;;;0.10;0.10;;;;;;;8.60;66.59;101587.91;5078589;28;20051;-67
2022/04/18 02:50:31;;;;;;;0.20;0.20;;;;;;;8.62;66.77;101583.03;5052186;28;20032;-68
2022/04/18 02:52:57;;;;;;;0.10;0.10;;;;;;;8.60;66.45;101584.44;5053005;28;20649;-67
2022/04/18 02:55:34;;;;;;;0.10;0.10;;;;;;;8.55;66.31;101582.72;5052869;28;20033;-67
2022/04/18 02:58:00;;;;;;;0.10;0.10;;;;;;;8.48;66.27;101574.34;5066706;28;20515;-67
2022/04/18 03:00:29;;;;;;;0.30;0.30;;;;;;;8.50;66.21;101580.19;5069819;28;20036;-67
2022/04/18 03:02:54;;;;;;;0.10;0.10;;;;;;;8.43;66.86;101574.53;5072835;28;20047;-67
2022/04/18 03:05:20;;;;;;;0.10;0.10;;;;;;;8.49;67.05;101572.47;5055104;28;20095;-67
2022/04/18 03:07:47;;;;;;;0.10;0.10;;;;;;;8.44;67.73;101570.72;5070934;28;20047;-67
2022/04/18 03:10:15;;;;;;;0.10;0.10;;;;;;;8.35;67.10;101566.47;5072470;28;20089;-67
2022/04/18 03:12:40;;;;;;;0.10;0.10;;;;;;;8.38;67.47;101563.94;5072413;28;20434;-67
2022/04/18 03:15:08;;;;;;;1.35;0.85;;;;;;;8.37;67.46;101572.31;5067332;28;20036;-67
2022/04/18 03:17:34;;;;;;;0.10;0.10;;;;;;;8.29;68.47;101568.53;5067897;28;20036;-67
2022/04/18 03:20:00;;;;;;;0.40;0.40;;;;;;;8.27;67.95;101554.63;5051574;28;20042;-67
2022/04/18 03:22:27;;;;;;;0.10;0.10;;;;;;;8.25;68.55;101553.38;5066250;22;20012;-68
2022/04/18 03:25:01;;;;;;;0.10;0.10;;;;;;;8.22;68.54;101557.47;5073607;28;20043;-69
2022/04/18 03:27:26;;;;;;;0.10;0.10;;;;;;;8.20;68.52;101556.97;5094024;28;20441;-68
2022/04/18 03:29:52;;;;;;;0.10;0.10;;;;;;;8.14;68.63;101542.94;5079577;28;20510;-69
2022/04/18 03:32:24;;;;;;;0.10;0.10;;;;;;;8.12;68.60;101547.03;5082098;28;20024;-69
2022/04/18 03:34:50;;;;;;;0.10;0.10;;;;;;;8.10;68.21;101555.41;5094587;28;20096;-69
2022/04/18 03:40:02;;;;;;;0.10;0.10;;;;;;;7.93;70.02;101552.72;5096056;28;20497;-69
2022/04/18 03:42:32;;;;;;;0.10;0.10;;;;;;;7.98;69.50;101551.75;5091059;28;20514;-69
2022/04/18 03:45:05;;;;;;;0.10;0.10;;;;;;;7.93;69.54;101547.34;5084668;28;20040;-68
2022/04/18 03:47:32;;;;;;;0.10;0.10;;;;;;;7.85;70.64;101550.00;5058400;28;20080;-68
2022/04/18 03:49:57;;;;;;;0.10;0.10;;;;;;;7.84;70.22;101551.13;5110823;28;20031;-69
2022/04/18 03:52:24;;;;;;;0.10;0.10;;;;;;;7.78;70.38;101552.38;5113082;28;20031;-69
2022/04/18 03:54:52;;;;;;;0.25;0.25;;;;;;;7.72;70.58;101550.94;5095774;28;20519;-68
2022/04/18 03:57:22;;;;;;;0.38;0.38;;;;;;;7.70;71.49;101545.91;5091922;28;20138;-68
2022/04/18 03:59:57;;;;;;;0.10;0.10;;;;;;;7.66;71.81;101536.91;5092329;28;20038;-68
2022/04/18 04:02:25;;;;;;;0.30;0.30;;;;;;;7.65;72.27;101547.94;5058302;28;20035;-68
2022/04/18 04:04:53;;;;;;;0.10;0.10;;;;;;;7.69;71.22;101544.31;5085525;28;20061;-69
2022/04/18 04:07:19;;;;;;;0.10;0.10;;;;;;;7.70;71.07;101537.06;5094812;28;20035;-69
2022/04/18 04:09:49;;;;;;;0.30;0.30;;;;;;;7.66;71.18;101525.41;5095608;28;20062;-68
2022/04/18 04:12:23;;;;;;;0.20;0.20;;;;;;;7.63;71.88;101531.38;5091215;28;20024;-68
2022/04/18 04:15:01;;;;;;;0.10;0.10;;;;;;;7.57;71.20;101525.38;5075022;28;20129;-68
2022/04/18 04:17:29;;;;;;;0.10;0.10;;;;;;;7.56;71.35;101526.47;5091560;28;20066;-68
2022/04/18 04:19:57;;;;;;;0.32;0.32;;;;;;;7.55;71.18;101516.84;5092210;28;20051;-68
2022/04/18 04:22:30;;;;;;;0.20;0.20;;;;;;;7.44;71.79;101528.97;5093800;28;20023;-68
2022/04/18 04:25:05;;;;;;;0.10;0.10;;;;;;;7.34;72.54;101520.44;5094976;28;20035;-68
2022/04/18 04:27:30;;;;;;;0.10;0.10;;;;;;;7.32;72.31;101533.38;5094269;28;20035;-68
2022/04/18 04:29:59;;;;;;;0.20;0.20;;;;;;;7.26;72.95;101524.66;5086079;28;20118;-69
2022/04/18 04:32:35;;;;;;;0.10;0.10;;;;;;;7.25;72.83;101523.09;5094998;28;20032;-69
2022/04/18 04:35:00;;;;;;;0.10;0.10;;;;;;;7.30;72.71;101525.63;5094737;28;20385;-68
2022/04/18 04:37:34;;;;;;;0.20;0.20;;;;;;;7.32;72.34;101521.53;5093655;28;20034;-69
2022/04/18 04:40:19;;;;;;;0.10;0.10;;;;;;;7.29;72.64;101518.69;5094173;28;20123;-69
2022/04/18 04:42:45;;;;;;;0.10;0.10;;;;;;;7.28;72.82;101517.91;5095026;28;20073;-68
2022/04/18 04:45:10;;;;;;;0.10;0.10;;;;;;;7.28;73.11;101509.06;5094825;28;20042;-68
2022/04/18 04:47:56;;;;;;;0.10;0.10;;;;;;;7.24;73.73;101510.78;5107229;28;20068;-69
2022/04/18 04:50:24;;;;;;;0.25;0.25;;;;;;;7.31;73.18;101516.50;5091294;28;20071;-69
2022/04/18 04:52:55;;;;;;;0.10;0.10;;;;;;;7.26;73.03;101517.41;5074311;28;20104;-68
2022/04/18 04:55:23;;;;;;;0.10;0.10;;;;;;;7.26;73.45;101508.59;5091023;28;20123;-68
2022/04/18 04:57:49;;;;;;;0.47;0.47;;;;;;;7.25;73.42;101521.22;5086375;28;20028;-68
2022/04/18 05:00:31;;;;;;;0.10;0.10;;;;;;;7.23;73.95;101515.38;5102841;28;20044;-69
2022/04/18 05:03:28;;;;;;;0.10;0.10;;;;;;;7.30;73.53;101515.69;5066322;28;20047;-68
2022/04/18 05:05:54;;;;;;;0.20;0.20;;;;;;;7.29;73.99;101522.16;5094272;28;20035;-68
2022/04/18 05:08:32;;;;;;;0.10;0.10;;;;;;;7.38;74.03;101518.69;5093676;28;20039;-69
2022/04/18 05:11:00;;;;;;;0.20;0.20;;;;;;;7.42;73.70;101519.66;5091339;28;20453;-69
2022/04/18 05:13:35;;;;;;;0.20;0.20;;;;;;;7.41;73.95;101515.41;5093125;28;20023;-68
2022/04/18 05:16:00;;;;;;;0.30;0.30;;;;;;;7.46;73.80;101520.63;5085841;28;20032;-67
2022/04/18 05:18:49;;;;;;;0.10;0.10;;;;;;;7.47;73.68;101520.28;5100424;28;20164;-68
2022/04/18 05:21:14;;;;;;;0.10;0.10;;;;;;;7.54;73.47;101515.28;5094010;28;20118;-69
2022/04/18 05:23:41;;;;;;;0.10;0.10;;;;;;;7.55;73.46;101521.44;5093988;28;20031;-69
2022/04/18 05:26:06;;;;;;;0.20;0.20;;;;;;;7.61;73.77;101520.16;5090542;28;20423;-70
2022/04/18 05:28:35;;;;;;;0.15;0.15;;;;;;;7.58;73.33;101518.13;5093474;28;20031;-69
2022/04/18 05:31:04;;;;;;;0.10;0.10;;;;;;;7.60;74.22;101508.69;5094118;28;20067;-69
2022/04/18 05:33:31;;;;;;;0.10;0.10;;;;;;;7.70;74.22;101507.59;5090923;28;20034;-68
2022/04/18 05:36:20;;;;;;;0.17;0.17;;;;;;;7.80;74.13;101513.41;5105775;28;20039;-69
2022/04/18 05:38:45;;;;;;;0.13;0.13;;;;;;;7.87;73.92;101507.59;5111381;28;20036;-68
2022/04/18 05:41:15;;;;;;;0.20;0.20;;;;;;;8.00;73.12;101512.81;5087135;28;20027;-68
2022/04/18 05:43:43;;;;;;;0.17;0.17;;;;;;;8.11;73.18;101513.25;5093112;28;20036;-69
2022/04/18 05:46:09;;;;;;;0.10;0.10;;;;;;;8.17;72.93;101512.00;5076963;28;20434;-70
2022/04/18 05:48:35;;;;;;;0.10;0.10;;;;;;;8.30;73.04;101513.78;5090990;28;20110;-69
2022/04/18 05:51:00;;;;;;;0.10;0.10;;;;;;;8.55;72.86;101514.81;5074871;28;20023;-68
2022/04/18 05:53:28;;;;;;;0.10;0.10;;;;;;;8.85;72.18;101519.94;5092934;28;20034;-68
2022/04/18 05:56:03;;;;;;;0.10;0.10;;;;;;;9.21;70.83;101526.75;5111348;28;20050;-68
2022/04/18 05:58:41;;;;;;;0.40;0.40;;;;;;;9.39;70.54;101520.19;5108429;28;20042;-68
2022/04/18 06:01:15;;;;;;;0.10;0.10;;;;;;;9.51;69.80;101521.03;5093128;28;20031;-66
2022/04/18 06:03:41;;;;;;;0.32;0.32;;;;;;;9.56;69.55;101520.84;5092930;28;20035;-67
2022/04/18 06:06:06;;;;;;;0.20;0.20;;;;;;;9.68;69.37;101528.19;5106292;28;20028;-69
2022/04/18 06:08:33;;;;;;;0.10;0.10;;;;;;;9.79;69.73;101519.41;5092283;28;20084;-67
2022/04/18 06:11:06;;;;;;;0.10;0.10;;;;;;;9.95;69.25;101536.56;5093045;28;20019;-67
2022/04/18 06:13:41;;;;;;;0.10;0.10;;;;;;;10.20;68.36;101534.78;5087600;28;20141;-67
2022/04/18 06:16:07;;;;;;;0.40;0.40;;;;;;;10.46;65.09;101521.91;5091622;28;20429;-67
2022/04/18 06:18:34;;;;;;;0.10;0.10;;;;;;;10.60;63.22;101525.09;5087348;28;20118;-67
2022/04/18 06:21:04;;;;;;;0.20;0.20;;;;;;;10.65;62.14;101529.44;5086640;28;20019;-67
2022/04/18 06:23:30;;;;;;;0.10;0.10;;;;;;;10.71;61.84;101525.44;5092126;28;20031;-67
2022/04/18 06:26:16;;;;;;;0.10;0.10;;;;;;;10.90;61.04;101531.88;5109270;28;20035;-67
2022/04/18 06:28:42;;;;;;;0.20;0.20;;;;;;;11.15;60.59;101532.66;5091808;28;20050;-68
2022/04/18 06:31:09;;;;;;;0.10;0.10;;;;;;;11.32;60.21;101537.06;5093142;28;20032;-68
2022/04/18 06:33:39;;;;;;;0.45;0.45;;;;;;;11.62;58.44;101536.47;5092667;28;20055;-67
2022/04/18 06:36:06;;;;;;;0.52;0.52;;;;;;;11.78;58.17;101539.28;5092744;28;20091;-67
2022/04/18 06:38:38;;;;;;;0.10;0.10;;;;;;;11.85;57.42;101536.78;5073536;28;20030;-67
2022/04/18 06:41:09;;;;;;;0.10;0.10;;;;;;;11.84;58.11;101540.63;5056489;28;20423;-67
2022/04/18 06:43:35;;;;;;;0.10;0.10;;;;;;;12.05;56.93;101538.53;5072156;28;20036;-67
2022/04/18 06:46:07;;;;;;;0.20;0.20;;;;;;;12.04;57.89;101539.66;5072041;28;20042;-67
2022/04/18 06:48:32;;;;;;;0.30;0.30;;;;;;;12.17;58.39;101535.03;5077152;28;20104;-67
2022/04/18 06:51:33;;;;;;;0.10;0.10;;;;;;;12.35;57.11;101536.31;5090347;28;20036;-67
2022/04/18 06:54:16;;;;;;;0.10;0.10;;;;;;;12.54;55.65;101545.31;5090610;28;20101;-67
2022/04/18 06:57:03;;;;;;;0.10;0.10;;;;;;;12.57;56.08;101539.22;5072153;28;20044;-68
2022/04/18 06:59:37;;;;;;;0.15;0.15;;;;;;;12.79;55.78;101542.47;5073447;28;20855;-68
2022/04/18 07:02:03;;;;;;;0.32;0.32;;;;;;;12.97;53.58;101535.63;5095162;28;20051;-67
2022/04/18 07:04:29;;;;;;;0.00;0.00;;;;;;;13.04;53.75;101536.59;5092246;28;20062;-68
2022/04/18 07:06:54;;;;;;;0.00;0.00;;;;;;;13.24;52.65;101535.53;5075864;28;20083;-67
2022/04/18 07:09:22;;;;;;;0.22;0.22;;;;;;;13.34;52.29;101543.13;5076510;28;20564;-67
2022/04/18 07:11:51;;;;;;;0.08;0.08;;;;;;;13.49;51.08;101544.25;5076449;28;20024;-68
2022/04/18 07:14:18;;;;;;;0.10;0.10;;;;;;;13.50;50.89;101546.59;5092943;28;20035;-67
2022/04/18 07:16:49;;;;;;;0.30;0.30;;;;;;;13.54;50.71;101546.66;5075819;28;20035;-67
2022/04/18 07:19:19;;;;;;;0.13;0.13;;;;;;;13.61;50.63;101541.41;5096081;28;20408;-67
2022/04/18 07:21:44;;;;;;;0.10;0.10;;;;;;;13.62;51.34;101543.00;5096471;28;20023;-67
2022/04/18 07:24:10;;;;;;;0.03;0.03;;;;;;;13.67;52.31;101545.41;5096538;28;20039;-67
2022/04/18 07:26:36;;;;;;;0.10;0.10;;;;;;;13.87;52.42;101544.31;5074341;28;20034;-67
2022/04/18 07:29:02;;;;;;;0.00;0.00;;;;;;;14.15;50.33;101560.38;5095565;28;20043;-67
2022/04/18 07:31:28;;;;;;;0.45;0.30;;;;;;;14.11;50.12;101557.56;5095684;28;20023;-67
2022/04/18 07:33:53;;;;;;;0.50;0.50;;;;;;;14.17;50.85;101555.38;5092033;28;20380;-67
2022/04/18 07:36:20;;;;;;;0.00;0.00;;;;;;;14.30;51.05;101556.84;5096124;28;20067;-67
2022/04/18 07:38:50;;;;;;;0.40;0.40;;;;;;;14.46;49.58;101552.88;5077517;28;20084;-67
2022/04/18 07:41:25;;;;;;;0.93;0.52;;;;;;;14.54;49.53;101542.19;5092172;28;20027;-67
2022/04/18 07:43:53;;;;;;;0.05;0.05;;;;;;;14.69;50.07;101544.78;5094298;28;20040;-67
2022/04/18 07:46:19;;;;;;;0.00;0.00;;;;;;;14.87;50.07;101550.53;5095839;28;20031;-68
2022/04/18 07:48:47;;;;;;;0.00;0.00;;;;;;;15.11;49.67;101555.59;5092116;28;20039;-68
2022/04/18 07:51:32;;;;;;;0.28;0.28;;;;;;;14.95;50.24;101547.59;5081413;28;20032;-67
2022/04/18 07:53:59;;;;;;;0.20;0.20;;;;;;;15.20;49.04;101556.13;5075759;28;20031;-68
2022/04/18 07:56:25;;;;;;;0.10;0.10;;;;;;;15.10;49.79;101548.59;5075080;28;20161;-67
2022/04/18 07:58:51;;;;;;;0.05;0.05;;;;;;;15.29;49.00;101551.25;5112521;28;20114;-67
2022/04/18 08:01:24;;;;;;;0.00;0.00;;;;;;;15.28;49.30;101549.66;5092223;28;20376;-67
2022/04/18 08:03:51;;;;;;;1.15;0.30;;;;;;;15.41;48.65;101548.31;5094518;28;20122;-67
2022/04/18 08:06:16;;;;;;;0.05;0.05;;;;;;;15.49;49.24;101543.81;5095448;28;20119;-67
2022/04/18 08:08:50;;;;;;;0.00;0.00;;;;;;;15.63;49.69;101542.09;5094877;28;20027;-67
2022/04/18 08:11:15;;;;;;;1.52;1.00;;;;;;;15.92;49.79;101541.31;5108132;28;20028;-67
2022/04/18 08:13:45;;;;;;;0.20;0.20;;;;;;;16.13;48.74;101547.03;5093819;28;20485;-67
2022/04/18 08:16:29;;;;;;;0.20;0.20;;;;;;;16.41;47.07;101545.78;5113549;28;20095;-68
2022/04/18 08:19:02;;;;;;;0.10;0.10;;;;;;;16.42;46.85;101537.25;5092394;28;20034;-68
2022/04/18 08:21:27;;;;;;;0.30;0.30;;;;;;;16.41;46.71;101537.63;5093922;28;20027;-68
2022/04/18 08:23:53;;;;;;;0.40;0.15;;;;;;;16.15;47.45;101538.50;5095205;28;20035;-69
2022/04/18 08:26:33;;;;;;;0.00;0.00;;;;;;;16.15;46.96;101538.50;5104437;28;20411;-67
2022/04/18 08:29:08;;;;;;;0.00;0.00;;;;;;;16.21;47.66;101543.25;5087836;28;20027;-67
2022/04/18 08:31:50;;;;;;;0.10;0.10;;;;;;;16.29;47.42;101544.09;5095402;28;20034;-68
2022/04/18 08:34:24;;;;;;;0.08;0.08;;;;;;;16.37;48.15;101544.97;5087880;28;20518;-68
2022/04/18 08:36:49;;;;;;;0.08;0.00;;;;;;;16.45;48.01;101544.69;5091864;28;20031;-67
2022/04/18 08:39:15;;;;;;;0.05;0.05;;;;;;;16.84;47.71;101547.81;5095136;28;20028;-68
2022/04/18 08:41:51;;;;;;;0.30;0.30;;;;;;;17.11;46.25;101543.78;5090926;28;20101;-67
2022/04/18 08:44:27;;;;;;;0.20;0.20;;;;;;;17.08;46.42;101541.78;5085834;28;20388;-68
2022/04/18 08:46:56;;;;;;;0.10;0.10;;;;;;;16.99;46.62;101533.94;5076371;28;20035;-69
2022/04/18 08:54:58;;;;;;;0.10;0.10;;;;;;;17.09;45.40;101525.06;5092017;28;20149;-68
2022/04/18 08:57:26;;;;;;;1.65;0.82;;;;;;;17.09;45.97;101529.75;5072080;28;20043;-68
2022/04/18 08:59:52;;;;;;;0.25;0.25;;;;;;;17.40;45.37;101531.91;5091092;28;20119;-68
2022/04/18 09:02:18;;;;;;;0.00;0.00;;;;;;;17.46;45.06;101529.63;5077697;28;20031;-68
2022/04/18 09:05:09;;;;;;;0.22;0.22;;;;;;;17.54;45.11;101526.59;5094376;28;20051;-68
2022/04/18 09:07:34;;;;;;;0.10;0.10;;;;;;;17.57;45.20;101533.22;5088512;28;20023;-68
2022/04/18 09:10:02;;;;;;;0.00;0.00;;;;;;;17.66;44.93;101522.75;5085933;28;20504;-68
2022/04/18 09:12:32;;;;;;;0.00;0.00;;;;;;;17.78;45.20;101525.16;5094340;28;20035;-68
2022/04/18 09:15:14;;;;;;;0.00;0.00;;;;;;;17.92;45.45;101514.34;5090906;28;20058;-67
2022/04/18 09:17:45;;;;;;;0.00;0.00;;;;;;;18.11;44.85;101513.25;5090314;28;20031;-67
2022/04/18 09:20:54;;;;;;;0.00;0.00;;;;;;;17.94;43.30;101510.06;5093578;28;20411;-67
2022/04/18 09:23:32;;;;;;;0.08;0.08;;;;;;;18.67;43.27;101510.66;5093563;28;20096;-68
2022/04/18 09:26:21;;;;;;;0.00;0.00;;;;;;;18.70;42.54;101504.44;5093328;28;20403;-68
2022/04/18 09:28:46;;;;;;;0.35;0.35;;;;;;;19.01;41.02;101509.13;5093035;28;20043;-68
2022/04/18 09:31:18;;;;;;;0.00;0.00;;;;;;;19.27;40.53;101514.19;5094008;28;20522;-67
2022/04/18 09:33:55;;;;;;;0.00;0.00;;;;;;;19.21;40.92;101513.00;5088207;28;20496;-68
2022/04/18 09:36:21;;;;;;;0.20;0.20;;;;;;;19.36;39.40;101503.66;5092635;28;20080;-68
2022/04/18 09:38:58;;;;;;;0.00;0.00;;;;;;;19.41;39.02;101505.22;5093248;28;20031;-68
2022/04/18 09:41:32;;;;;;;0.10;0.00;;;;;;;19.46;37.86;101496.59;5106046;28;20036;-67
2022/04/18 09:44:08;;;;;;;;;;;;;;;19.36;37.48;101490.00;5080346;28;20040;-68
2022/04/18 09:46:39;;;;;;;0.40;0.28;;;;;;;19.49;37.62;101493.09;5089718;28;19938;-68
2022/04/18 09:49:11;;;;;;;0.00;0.00;;;;;;;19.66;39.20;101493.03;5092437;28;20031;-68
2022/04/18 09:51:45;;;;;;;0.00;0.00;;;;;;;19.83;37.85;101498.81;5093672;28;20019;-68
2022/04/18 09:54:20;;;;;;;0.00;0.00;;;;;;;19.79;37.44;101483.22;5073202;28;20036;-68
2022/04/18 09:56:50;;;;;;;0.00;0.00;;;;;;;19.43;37.37;101481.78;5090611;28;20492;-68
2022/04/18 09:59:16;;;;;;;0.17;0.17;;;;;;;19.63;37.60;101480.16;5073013;28;20063;-69
2022/04/18 10:01:42;;;;;;;0.03;0.03;;;;;;;20.04;37.72;101480.38;5103188;28;20016;-68
2022/04/18 10:04:08;;;;;;;0.13;0.13;;;;;;;19.71;37.06;101480.91;5102068;28;20047;-68
2022/04/18 10:06:36;;;;;;;0.13;0.13;;;;;;;19.76;36.39;101477.78;5092924;28;20044;-68
2022/04/18 10:09:02;;;;;;;0.00;0.00;;;;;;;19.94;35.49;101469.50;5111385;28;20122;-68
2022/04/18 10:11:28;;;;;;;0.63;0.30;;;;;;;19.87;35.53;101469.53;5098615;28;20110;-68
2022/04/18 10:13:53;;;;;;;0.00;0.00;;;;;;;20.30;35.61;101470.88;5109041;28;20036;-68
2022/04/18 10:16:20;;;;;;;0.10;0.10;;;;;;;20.07;35.63;101467.88;5090179;28;20076;-68
2022/04/18 10:18:50;;;;;;;0.00;0.00;;;;;;;20.51;35.35;101466.06;5110821;28;20171;-68
2022/04/18 10:21:24;;;;;;;0.00;0.00;;;;;;;20.41;35.25;101464.16;5111563;28;20067;-68
2022/04/18 10:24:27;;;;;;;0.17;0.17;;;;;;;20.66;35.59;101453.81;5111035;28;20035;-68
2022/04/18 10:27:20;;;;;;;0.20;0.20;;;;;;;20.91;35.95;101448.09;5090232;28;20036;-68
2022/04/18 10:29:50;;;;;;;0.57;0.35;;;;;;;20.58;35.55;101449.56;5090923;28;20040;-68
2022/04/18 10:32:22;;;;;;;0.17;0.17;;;;;;;20.55;34.55;101444.91;5072758;28;20064;-69
2022/04/18 10:34:51;;;;;;;0.00;0.00;;;;;;;20.53;35.71;101443.75;5092393;28;20391;-69
2022/04/18 10:37:22;;;;;;;0.00;0.00;;;;;;;20.99;35.58;101449.59;5109930;28;20118;-68
2022/04/18 10:39:59;;;;;;;0.00;0.00;;;;;;;20.88;35.93;101450.88;5111406;28;20051;-68
2022/04/18 10:42:28;;;;;;;0.00;0.00;;;;;;;20.78;35.58;101440.78;5088214;28;20036;-68
2022/04/18 10:45:00;;;;;;;0.13;0.13;;;;;;;20.66;35.48;101453.03;5107682;28;20050;-68
2022/04/18 10:47:26;;;;;;;0.38;0.38;;;;;;;20.84;35.32;101439.97;5103255;28;20050;-68
2022/04/18 10:50:16;;;;;;;0.25;0.17;;;;;;;21.17;34.70;101439.28;5110091;28;20506;-68
2022/04/18 10:52:41;;;;;;;0.20;0.05;;;;;;;21.40;35.13;101431.19;5111271;28;20321;-68
2022/04/18 10:55:18;;;;;;;0.20;0.20;;;;;;;21.60;35.13;101434.09;5092147;28;20051;-68
2022/04/18 10:57:43;;;;;;;0.13;0.13;;;;;;;21.23;34.05;101436.88;5101761;28;20043;-69
2022/04/18 11:00:09;;;;;;;0.00;0.00;;;;;;;21.24;34.08;101432.94;5110998;28;20031;-69
2022/04/18 11:02:42;;;;;;;0.00;0.00;;;;;;;21.02;34.85;101421.41;5109904;28;20035;-69
2022/04/18 11:05:08;;;;;;;0.00;0.00;;;;;;;21.03;35.12;101403.81;5106795;28;20047;-69
2022/04/18 11:07:41;;;;;;;0.00;0.00;;;;;;;21.43;34.92;101415.88;5109494;28;20047;-69
2022/04/18 11:10:20;;;;;;;0.77;0.52;;;;;;;21.95;33.78;101406.22;5090722;28;20491;-69
2022/04/18 11:12:46;;;;;;;0.13;0.13;;;;;;;21.93;32.63;101418.81;5090341;28;20088;-69
2022/04/18 11:15:12;;;;;;;0.08;0.00;;;;;;;21.74;33.75;101419.44;5092564;28;20126;-68
2022/04/18 11:17:39;;;;;;;0.05;0.05;;;;;;;22.05;34.09;101415.47;5110262;28;20035;-69
2022/04/18 11:20:23;;;;;;;0.00;0.00;;;;;;;22.18;34.36;101413.75;5105701;28;20096;-69
2022/04/18 11:23:27;;;;;;;0.10;0.10;;;;;;;22.21;33.70;101407.41;5109065;28;20133;-69
2022/04/18 11:25:52;;;;;;;0.00;0.00;;;;;;;22.05;33.06;101404.50;5110549;28;20061;-69
2022/04/18 11:28:18;;;;;;;0.22;0.22;;;;;;;21.77;33.18;101394.69;5098825;28;20028;-69
2022/04/18 11:30:43;;;;;;;0.20;0.20;;;;;;;22.05;32.82;101404.50;5107637;28;20507;-69
2022/04/18 11:33:09;;;;;;;0.00;0.00;;;;;;;22.01;33.12;101390.84;5110313;28;20034;-69
2022/04/18 11:35:34;;;;;;;0.10;0.10;;;;;;;22.26;34.45;101385.75;5104739;28;20465;-69
2022/04/18 11:38:07;;;;;;;0.00;0.00;;;;;;;22.06;33.54;101381.38;5089399;28;20020;-69
2022/04/18 11:40:37;;;;;;;0.17;0.17;;;;;;;22.40;33.54;101379.25;5072549;28;20131;-69
2022/04/18 11:43:13;;;;;;;0.10;0.10;;;;;;;22.10;33.41;101382.09;5089796;28;20108;-69
2022/04/18 11:45:39;;;;;;;0.28;0.28;;;;;;;22.26;34.21;101391.25;5072216;28;20078;-69
2022/04/18 11:48:04;;;;;;;0.00;0.00;;;;;;;22.55;33.24;101388.03;5093439;28;20051;-69
2022/04/18 11:50:32;;;;;;;0.00;0.00;;;;;;;22.54;32.87;101384.50;5113105;28;20036;-69
2022/04/18 11:53:06;;;;;;;0.00;0.00;;;;;;;22.23;32.79;101374.81;5113905;28;20076;-69
2022/04/18 11:55:41;;;;;;;0.00;0.00;;;;;;;22.39;33.51;101378.50;5113758;28;20038;-69